sensor_id;sensor_type;location;lat;lon;timestamp;temperature;humidity
21259;DHT22;10787;53.364;-1.480;2023-05-10T00:00:09;10.80;1.00
21259;DHT22;10787;53.364;-1.480;2023-05-10T00:02:54;10.80;1.00
21259;DHT22;10787;53.364;-1.480;2023-05-10T00:05:38;10.70;1.00
21259;DHT22;10787;53.364;-1.480;2023-05-10T00:08:22;10.70;1.00
21259;DHT22;10787;53.364;-1.480;2023-05-10T00:11:06;10.70;1.00
21259;DHT22;10787;53.364;-1.480;2023-05-10T00:13:51;10.70;1.00
21259;DHT22;10787;53.364;-1.480;2023-05-10T00:16:35;10.70;1.00
21259;DHT22;10787;53.364;-1.480;2023-05-10T00:19:20;10.70;1.00
21259;DHT22;10787;53.364;-1.480;2023-05-10T00:22:04;10.70;1.00
21259;DHT22;10787;53.364;-1.480;2023-05-10T00:24:48;10.70;1.00
21259;DHT22;10787;53.364;-1.480;2023-05-10T00:27:32;10.70;1.00
21259;DHT22;10787;53.364;-1.480;2023-05-10T00:30:17;10.70;1.00
21259;DHT22;10787;53.364;-1.480;2023-05-10T00:33:02;10.70;1.00
21259;DHT22;10787;53.364;-1.480;2023-05-10T00:35:47;10.70;1.00
21259;DHT22;10787;53.364;-1.480;2023-05-10T00:38:31;10.70;1.00
21259;DHT22;10787;53.364;-1.480;2023-05-10T00:41:15;10.70;1.00
21259;DHT22;10787;53.364;-1.480;2023-05-10T00:44:00;10.70;1.00
21259;DHT22;10787;53.364;-1.480;2023-05-10T00:46:46;10.80;1.00
21259;DHT22;10787;53.364;-1.480;2023-05-10T00:49:32;10.80;1.00
21259;DHT22;10787;53.364;-1.480;2023-05-10T00:52:16;10.80;1.00
21259;DHT22;10787;53.364;-1.480;2023-05-10T00:55:01;10.80;1.00
21259;DHT22;10787;53.364;-1.480;2023-05-10T00:57:47;10.80;1.00
21259;DHT22;10787;53.364;-1.480;2023-05-10T01:00:33;10.80;1.00
21259;DHT22;10787;53.364;-1.480;2023-05-10T01:03:17;10.90;1.00
21259;DHT22;10787;53.364;-1.480;2023-05-10T01:06:02;10.90;1.00
21259;DHT22;10787;53.364;-1.480;2023-05-10T01:08:47;10.80;1.00
21259;DHT22;10787;53.364;-1.480;2023-05-10T01:11:33;10.90;1.00
21259;DHT22;10787;53.364;-1.480;2023-05-10T01:14:18;10.90;1.00
21259;DHT22;10787;53.364;-1.480;2023-05-10T01:17:04;10.90;1.00
21259;DHT22;10787;53.364;-1.480;2023-05-10T01:19:50;10.90;1.00
21259;DHT22;10787;53.364;-1.480;2023-05-10T01:23:02;10.90;1.00
21259;DHT22;10787;53.364;-1.480;2023-05-10T01:29:27;11.00;1.00
21259;DHT22;10787;53.364;-1.480;2023-05-10T01:35:03;10.90;1.00
21259;DHT22;10787;53.364;-1.480;2023-05-10T01:38:07;10.90;1.00
21259;DHT22;10787;53.364;-1.480;2023-05-10T01:44:09;10.90;1.00
21259;DHT22;10787;53.364;-1.480;2023-05-10T01:47:07;10.80;1.00
21259;DHT22;10787;53.364;-1.480;2023-05-10T01:49:55;10.80;1.00
21259;DHT22;10787;53.364;-1.480;2023-05-10T01:52:53;10.80;1.00
21259;DHT22;10787;53.364;-1.480;2023-05-10T01:55:45;10.80;1.00
21259;DHT22;10787;53.364;-1.480;2023-05-10T01:58:31;10.90;1.00
21259;DHT22;10787;53.364;-1.480;2023-05-10T02:01:17;10.80;1.00
21259;DHT22;10787;53.364;-1.480;2023-05-10T02:04:03;10.80;1.00
21259;DHT22;10787;53.364;-1.480;2023-05-10T02:06:49;10.80;1.00
21259;DHT22;10787;53.364;-1.480;2023-05-10T02:09:35;10.70;1.00
21259;DHT22;10787;53.364;-1.480;2023-05-10T02:12:21;10.70;1.00
21259;DHT22;10787;53.364;-1.480;2023-05-10T02:15:07;10.70;1.00
21259;DHT22;10787;53.364;-1.480;2023-05-10T02:17:54;10.70;1.00
21259;DHT22;10787;53.364;-1.480;2023-05-10T02:20:39;10.60;1.00
21259;DHT22;10787;53.364;-1.480;2023-05-10T02:23:25;10.60;1.00
21259;DHT22;10787;53.364;-1.480;2023-05-10T02:26:11;10.50;1.00
21259;DHT22;10787;53.364;-1.480;2023-05-10T02:28:58;10.50;1.00
21259;DHT22;10787;53.364;-1.480;2023-05-10T02:31:43;10.50;1.00
21259;DHT22;10787;53.364;-1.480;2023-05-10T02:34:28;10.40;1.00
21259;DHT22;10787;53.364;-1.480;2023-05-10T02:37:14;10.40;1.00
21259;DHT22;10787;53.364;-1.480;2023-05-10T02:40:01;10.40;1.00
21259;DHT22;10787;53.364;-1.480;2023-05-10T02:42:48;10.40;1.00
21259;DHT22;10787;53.364;-1.480;2023-05-10T02:45:35;10.30;1.00
21259;DHT22;10787;53.364;-1.480;2023-05-10T02:48:20;10.30;1.00
21259;DHT22;10787;53.364;-1.480;2023-05-10T02:51:07;10.30;1.00
21259;DHT22;10787;53.364;-1.480;2023-05-10T02:53:53;10.20;1.00
21259;DHT22;10787;53.364;-1.480;2023-05-10T02:56:42;10.20;1.00
21259;DHT22;10787;53.364;-1.480;2023-05-10T02:59:31;10.20;1.00
21259;DHT22;10787;53.364;-1.480;2023-05-10T03:02:16;10.10;1.00
21259;DHT22;10787;53.364;-1.480;2023-05-10T03:05:01;10.10;1.00
21259;DHT22;10787;53.364;-1.480;2023-05-10T03:07:47;10.10;1.00
21259;DHT22;10787;53.364;-1.480;2023-05-10T03:10:33;10.10;1.00
21259;DHT22;10787;53.364;-1.480;2023-05-10T03:13:47;10.10;1.00
21259;DHT22;10787;53.364;-1.480;2023-05-10T03:16:41;10.20;1.00
21259;DHT22;10787;53.364;-1.480;2023-05-10T03:19:32;10.10;1.00
21259;DHT22;10787;53.364;-1.480;2023-05-10T03:22:29;10.10;1.00
21259;DHT22;10787;53.364;-1.480;2023-05-10T03:25:16;10.10;1.00
21259;DHT22;10787;53.364;-1.480;2023-05-10T03:28:03;10.10;1.00
21259;DHT22;10787;53.364;-1.480;2023-05-10T03:30:49;10.00;1.00
21259;DHT22;10787;53.364;-1.480;2023-05-10T03:33:35;10.00;1.00
21259;DHT22;10787;53.364;-1.480;2023-05-10T03:36:19;10.00;1.00
21259;DHT22;10787;53.364;-1.480;2023-05-10T03:39:04;10.00;1.00
21259;DHT22;10787;53.364;-1.480;2023-05-10T03:41:48;10.00;1.00
21259;DHT22;10787;53.364;-1.480;2023-05-10T03:44:32;9.90;1.00
21259;DHT22;10787;53.364;-1.480;2023-05-10T03:47:17;9.90;15.50
21259;DHT22;10787;53.364;-1.480;2023-05-10T03:50:01;9.90;6.00
21259;DHT22;10787;53.364;-1.480;2023-05-10T03:52:46;9.90;40.00
21259;DHT22;10787;53.364;-1.480;2023-05-10T03:55:30;9.90;53.00
21259;DHT22;10787;53.364;-1.480;2023-05-10T03:58:18;9.80;6.60
21259;DHT22;10787;53.364;-1.480;2023-05-10T04:01:03;9.80;28.90
21259;DHT22;10787;53.364;-1.480;2023-05-10T04:03:47;9.80;1.00
21259;DHT22;10787;53.364;-1.480;2023-05-10T04:06:31;9.80;1.00
21259;DHT22;10787;53.364;-1.480;2023-05-10T04:09:16;9.80;3.60
21259;DHT22;10787;53.364;-1.480;2023-05-10T04:12:01;9.70;13.00
21259;DHT22;10787;53.364;-1.480;2023-05-10T04:14:46;9.70;2.50
21259;DHT22;10787;53.364;-1.480;2023-05-10T04:17:30;9.70;1.00
21259;DHT22;10787;53.364;-1.480;2023-05-10T04:20:15;9.70;2.60
21259;DHT22;10787;53.364;-1.480;2023-05-10T04:23:00;9.70;14.90
21259;DHT22;10787;53.364;-1.480;2023-05-10T04:25:44;9.70;57.40
21259;DHT22;10787;53.364;-1.480;2023-05-10T04:28:29;9.70;11.80
21259;DHT22;10787;53.364;-1.480;2023-05-10T04:31:13;9.70;39.90
21259;DHT22;10787;53.364;-1.480;2023-05-10T04:33:57;9.70;1.00
21259;DHT22;10787;53.364;-1.480;2023-05-10T04:36:41;9.70;1.00
21259;DHT22;10787;53.364;-1.480;2023-05-10T04:39:25;9.70;1.00
21259;DHT22;10787;53.364;-1.480;2023-05-10T04:42:09;9.70;1.00
21259;DHT22;10787;53.364;-1.480;2023-05-10T04:44:54;9.80;1.00
21259;DHT22;10787;53.364;-1.480;2023-05-10T04:47:38;9.80;27.40
21259;DHT22;10787;53.364;-1.480;2023-05-10T04:50:22;9.80;1.00
21259;DHT22;10787;53.364;-1.480;2023-05-10T04:53:07;9.80;1.00
21259;DHT22;10787;53.364;-1.480;2023-05-10T04:55:51;9.90;1.00
21259;DHT22;10787;53.364;-1.480;2023-05-10T04:58:35;9.90;1.00
21259;DHT22;10787;53.364;-1.480;2023-05-10T05:01:22;10.00;1.00
21259;DHT22;10787;53.364;-1.480;2023-05-10T05:04:07;10.00;1.00
21259;DHT22;10787;53.364;-1.480;2023-05-10T05:06:51;10.10;1.00
21259;DHT22;10787;53.364;-1.480;2023-05-10T05:09:35;10.10;1.00
21259;DHT22;10787;53.364;-1.480;2023-05-10T05:12:20;10.10;1.00
21259;DHT22;10787;53.364;-1.480;2023-05-10T05:15:04;10.20;1.00
21259;DHT22;10787;53.364;-1.480;2023-05-10T05:17:49;10.30;3.00
21259;DHT22;10787;53.364;-1.480;2023-05-10T05:20:33;10.30;1.00
21259;DHT22;10787;53.364;-1.480;2023-05-10T05:23:21;10.40;1.00
21259;DHT22;10787;53.364;-1.480;2023-05-10T05:26:08;10.40;1.00
21259;DHT22;10787;53.364;-1.480;2023-05-10T05:28:53;10.50;1.00
21259;DHT22;10787;53.364;-1.480;2023-05-10T05:31:38;10.60;1.00
21259;DHT22;10787;53.364;-1.480;2023-05-10T05:34:22;10.60;1.00
21259;DHT22;10787;53.364;-1.480;2023-05-10T05:37:07;10.70;1.00
21259;DHT22;10787;53.364;-1.480;2023-05-10T05:39:51;10.80;1.00
21259;DHT22;10787;53.364;-1.480;2023-05-10T05:42:35;10.90;1.00
21259;DHT22;10787;53.364;-1.480;2023-05-10T05:45:20;11.00;1.00
21259;DHT22;10787;53.364;-1.480;2023-05-10T05:48:05;11.30;1.00
21259;DHT22;10787;53.364;-1.480;2023-05-10T05:50:49;11.50;1.00
21259;DHT22;10787;53.364;-1.480;2023-05-10T05:53:34;11.80;1.00
21259;DHT22;10787;53.364;-1.480;2023-05-10T05:56:18;11.80;1.00
21259;DHT22;10787;53.364;-1.480;2023-05-10T05:59:08;11.90;1.00
21259;DHT22;10787;53.364;-1.480;2023-05-10T06:01:52;12.00;1.00
21259;DHT22;10787;53.364;-1.480;2023-05-10T06:04:37;11.90;1.00
21259;DHT22;10787;53.364;-1.480;2023-05-10T06:07:21;12.00;1.00
21259;DHT22;10787;53.364;-1.480;2023-05-10T06:10:06;12.00;1.00
21259;DHT22;10787;53.364;-1.480;2023-05-10T06:12:50;12.00;1.00
21259;DHT22;10787;53.364;-1.480;2023-05-10T06:15:34;12.00;1.00
21259;DHT22;10787;53.364;-1.480;2023-05-10T06:18:19;12.10;1.00
21259;DHT22;10787;53.364;-1.480;2023-05-10T06:21:03;12.10;1.00
21259;DHT22;10787;53.364;-1.480;2023-05-10T06:23:48;12.20;1.00
21259;DHT22;10787;53.364;-1.480;2023-05-10T06:26:32;12.30;1.00
21259;DHT22;10787;53.364;-1.480;2023-05-10T06:29:17;12.40;1.00
21259;DHT22;10787;53.364;-1.480;2023-05-10T06:32:01;12.40;1.00
21259;DHT22;10787;53.364;-1.480;2023-05-10T06:34:46;12.50;1.00
21259;DHT22;10787;53.364;-1.480;2023-05-10T06:37:30;12.60;1.00
21259;DHT22;10787;53.364;-1.480;2023-05-10T06:40:14;12.70;1.00
21259;DHT22;10787;53.364;-1.480;2023-05-10T06:42:59;12.80;1.00
21259;DHT22;10787;53.364;-1.480;2023-05-10T06:45:43;12.90;1.00
21259;DHT22;10787;53.364;-1.480;2023-05-10T06:48:27;13.00;1.00
21259;DHT22;10787;53.364;-1.480;2023-05-10T06:51:12;13.00;1.00
21259;DHT22;10787;53.364;-1.480;2023-05-10T06:53:56;13.10;1.00
21259;DHT22;10787;53.364;-1.480;2023-05-10T06:56:41;13.20;1.00
21259;DHT22;10787;53.364;-1.480;2023-05-10T06:59:24;13.40;1.00
21259;DHT22;10787;53.364;-1.480;2023-05-10T07:02:09;13.40;1.00
21259;DHT22;10787;53.364;-1.480;2023-05-10T07:04:53;13.50;1.00
21259;DHT22;10787;53.364;-1.480;2023-05-10T07:07:38;13.60;1.00
21259;DHT22;10787;53.364;-1.480;2023-05-10T07:10:22;13.60;1.00
21259;DHT22;10787;53.364;-1.480;2023-05-10T07:13:06;13.60;1.00
21259;DHT22;10787;53.364;-1.480;2023-05-10T07:15:50;13.70;1.00
21259;DHT22;10787;53.364;-1.480;2023-05-10T07:18:34;13.70;1.00
21259;DHT22;10787;53.364;-1.480;2023-05-10T07:21:19;13.80;1.00
21259;DHT22;10787;53.364;-1.480;2023-05-10T07:24:03;13.80;1.00
21259;DHT22;10787;53.364;-1.480;2023-05-10T07:26:48;13.80;1.00
21259;DHT22;10787;53.364;-1.480;2023-05-10T07:29:32;13.90;1.00
21259;DHT22;10787;53.364;-1.480;2023-05-10T07:32:16;13.90;1.00
21259;DHT22;10787;53.364;-1.480;2023-05-10T07:35:01;14.00;1.00
21259;DHT22;10787;53.364;-1.480;2023-05-10T07:37:45;14.20;1.00
21259;DHT22;10787;53.364;-1.480;2023-05-10T07:40:29;14.30;1.00
21259;DHT22;10787;53.364;-1.480;2023-05-10T07:43:14;14.40;1.00
21259;DHT22;10787;53.364;-1.480;2023-05-10T07:45:58;14.60;1.00
21259;DHT22;10787;53.364;-1.480;2023-05-10T07:48:43;14.80;1.00
21259;DHT22;10787;53.364;-1.480;2023-05-10T07:51:28;15.20;1.00
21259;DHT22;10787;53.364;-1.480;2023-05-10T07:54:13;15.60;1.00
21259;DHT22;10787;53.364;-1.480;2023-05-10T07:56:57;15.70;1.00
21259;DHT22;10787;53.364;-1.480;2023-05-10T07:59:41;15.70;1.00
21259;DHT22;10787;53.364;-1.480;2023-05-10T08:02:26;15.70;1.00
21259;DHT22;10787;53.364;-1.480;2023-05-10T08:05:10;15.50;1.00
21259;DHT22;10787;53.364;-1.480;2023-05-10T08:07:55;15.50;1.00
21259;DHT22;10787;53.364;-1.480;2023-05-10T08:10:39;15.50;1.00
21259;DHT22;10787;53.364;-1.480;2023-05-10T08:13:23;15.70;1.00
21259;DHT22;10787;53.364;-1.480;2023-05-10T08:16:08;15.80;1.00
21259;DHT22;10787;53.364;-1.480;2023-05-10T08:18:52;15.90;1.00
21259;DHT22;10787;53.364;-1.480;2023-05-10T08:21:39;15.90;1.00
21259;DHT22;10787;53.364;-1.480;2023-05-10T08:24:24;15.80;1.00
21259;DHT22;10787;53.364;-1.480;2023-05-10T08:27:09;15.70;1.00
21259;DHT22;10787;53.364;-1.480;2023-05-10T08:29:54;15.70;1.00
21259;DHT22;10787;53.364;-1.480;2023-05-10T08:32:38;15.70;1.00
21259;DHT22;10787;53.364;-1.480;2023-05-10T08:35:23;15.60;1.00
21259;DHT22;10787;53.364;-1.480;2023-05-10T08:38:08;15.60;1.00
21259;DHT22;10787;53.364;-1.480;2023-05-10T08:40:54;15.60;1.00
21259;DHT22;10787;53.364;-1.480;2023-05-10T08:43:41;15.70;1.00
21259;DHT22;10787;53.364;-1.480;2023-05-10T08:46:31;15.80;1.00
21259;DHT22;10787;53.364;-1.480;2023-05-10T08:49:18;15.90;1.00
21259;DHT22;10787;53.364;-1.480;2023-05-10T08:52:04;16.00;1.00
21259;DHT22;10787;53.364;-1.480;2023-05-10T08:54:49;16.20;1.00
21259;DHT22;10787;53.364;-1.480;2023-05-10T08:57:35;16.50;1.00
21259;DHT22;10787;53.364;-1.480;2023-05-10T09:00:21;16.70;1.00
21259;DHT22;10787;53.364;-1.480;2023-05-10T09:03:07;16.60;1.00
21259;DHT22;10787;53.364;-1.480;2023-05-10T09:05:51;16.70;1.00
21259;DHT22;10787;53.364;-1.480;2023-05-10T09:08:36;16.70;1.00
21259;DHT22;10787;53.364;-1.480;2023-05-10T09:11:21;16.90;1.00
21259;DHT22;10787;53.364;-1.480;2023-05-10T09:14:07;17.00;1.00
21259;DHT22;10787;53.364;-1.480;2023-05-10T09:16:54;17.20;1.00
21259;DHT22;10787;53.364;-1.480;2023-05-10T09:19:39;17.20;1.00
21259;DHT22;10787;53.364;-1.480;2023-05-10T09:22:23;17.10;1.00
21259;DHT22;10787;53.364;-1.480;2023-05-10T09:25:13;17.00;1.00
21259;DHT22;10787;53.364;-1.480;2023-05-10T09:27:57;16.70;1.00
21259;DHT22;10787;53.364;-1.480;2023-05-10T09:30:42;16.70;1.00
21259;DHT22;10787;53.364;-1.480;2023-05-10T09:33:27;16.70;1.00
21259;DHT22;10787;53.364;-1.480;2023-05-10T09:36:12;16.70;1.00
21259;DHT22;10787;53.364;-1.480;2023-05-10T09:38:57;16.70;1.00
21259;DHT22;10787;53.364;-1.480;2023-05-10T09:41:42;16.50;1.00
21259;DHT22;10787;53.364;-1.480;2023-05-10T09:44:26;16.50;1.00
21259;DHT22;10787;53.364;-1.480;2023-05-10T09:47:17;16.40;1.00
21259;DHT22;10787;53.364;-1.480;2023-05-10T09:50:03;16.40;1.00
21259;DHT22;10787;53.364;-1.480;2023-05-10T09:52:53;16.40;1.00
21259;DHT22;10787;53.364;-1.480;2023-05-10T09:55:43;16.50;1.00
21259;DHT22;10787;53.364;-1.480;2023-05-10T09:58:28;16.70;1.00
21259;DHT22;10787;53.364;-1.480;2023-05-10T10:01:13;16.90;1.00
21259;DHT22;10787;53.364;-1.480;2023-05-10T10:03:58;17.20;1.00
21259;DHT22;10787;53.364;-1.480;2023-05-10T10:06:43;17.50;1.00
21259;DHT22;10787;53.364;-1.480;2023-05-10T10:09:27;17.80;1.00
21259;DHT22;10787;53.364;-1.480;2023-05-10T10:12:12;17.90;1.00
21259;DHT22;10787;53.364;-1.480;2023-05-10T10:14:56;17.90;1.00
21259;DHT22;10787;53.364;-1.480;2023-05-10T10:17:41;17.30;1.00
21259;DHT22;10787;53.364;-1.480;2023-05-10T10:20:29;17.40;1.00
21259;DHT22;10787;53.364;-1.480;2023-05-10T10:23:13;17.50;1.00
21259;DHT22;10787;53.364;-1.480;2023-05-10T10:25:58;17.80;1.00
21259;DHT22;10787;53.364;-1.480;2023-05-10T10:33:10;18.50;1.00
21259;DHT22;10787;53.364;-1.480;2023-05-10T10:35:32;18.60;1.00
21259;DHT22;10787;53.364;-1.480;2023-05-10T10:38:17;18.30;1.00
21259;DHT22;10787;53.364;-1.480;2023-05-10T10:41:26;18.30;1.00
21259;DHT22;10787;53.364;-1.480;2023-05-10T10:47:22;17.70;1.00
21259;DHT22;10787;53.364;-1.480;2023-05-10T10:50:08;17.60;1.00
21259;DHT22;10787;53.364;-1.480;2023-05-10T10:52:53;17.70;1.00
21259;DHT22;10787;53.364;-1.480;2023-05-10T10:55:46;17.50;1.00
21259;DHT22;10787;53.364;-1.480;2023-05-10T10:58:31;17.30;1.00
21259;DHT22;10787;53.364;-1.480;2023-05-10T11:01:17;17.20;1.00
21259;DHT22;10787;53.364;-1.480;2023-05-10T11:06:49;17.00;1.00
21259;DHT22;10787;53.364;-1.480;2023-05-10T11:09:39;16.80;1.00
21259;DHT22;10787;53.364;-1.480;2023-05-10T11:12:24;16.70;1.00
21259;DHT22;10787;53.364;-1.480;2023-05-10T11:15:09;16.40;1.00
21259;DHT22;10787;53.364;-1.480;2023-05-10T11:17:54;16.10;1.00
21259;DHT22;10787;53.364;-1.480;2023-05-10T11:20:39;16.10;1.00
21259;DHT22;10787;53.364;-1.480;2023-05-10T11:23:30;16.00;1.00
21259;DHT22;10787;53.364;-1.480;2023-05-10T11:26:14;16.30;1.00
21259;DHT22;10787;53.364;-1.480;2023-05-10T11:28:59;16.70;1.00
21259;DHT22;10787;53.364;-1.480;2023-05-10T11:31:46;17.10;1.00
21259;DHT22;10787;53.364;-1.480;2023-05-10T11:34:31;17.60;1.00
21259;DHT22;10787;53.364;-1.480;2023-05-10T11:37:18;17.80;1.00
21259;DHT22;10787;53.364;-1.480;2023-05-10T11:40:03;18.00;1.00
21259;DHT22;10787;53.364;-1.480;2023-05-10T11:42:48;18.10;1.00
21259;DHT22;10787;53.364;-1.480;2023-05-10T11:45:33;18.10;1.00
21259;DHT22;10787;53.364;-1.480;2023-05-10T11:48:17;18.30;1.00
21259;DHT22;10787;53.364;-1.480;2023-05-10T11:51:10;18.80;1.00
21259;DHT22;10787;53.364;-1.480;2023-05-10T11:53:56;19.80;1.00
21259;DHT22;10787;53.364;-1.480;2023-05-10T11:56:40;20.10;1.00
21259;DHT22;10787;53.364;-1.480;2023-05-10T11:59:25;19.90;1.00
21259;DHT22;10787;53.364;-1.480;2023-05-10T12:02:10;19.40;1.00
21259;DHT22;10787;53.364;-1.480;2023-05-10T12:04:55;18.80;1.00
21259;DHT22;10787;53.364;-1.480;2023-05-10T12:07:39;18.30;1.00
21259;DHT22;10787;53.364;-1.480;2023-05-10T12:10:27;17.80;1.00
21259;DHT22;10787;53.364;-1.480;2023-05-10T12:13:12;17.20;1.00
21259;DHT22;10787;53.364;-1.480;2023-05-10T12:15:59;16.60;1.00
21259;DHT22;10787;53.364;-1.480;2023-05-10T12:18:57;15.90;1.00
21259;DHT22;10787;53.364;-1.480;2023-05-10T12:21:42;15.40;1.00
21259;DHT22;10787;53.364;-1.480;2023-05-10T12:24:27;15.40;1.00
21259;DHT22;10787;53.364;-1.480;2023-05-10T12:27:11;15.20;1.00
21259;DHT22;10787;53.364;-1.480;2023-05-10T12:29:59;15.10;1.00
21259;DHT22;10787;53.364;-1.480;2023-05-10T12:32:44;15.20;1.00
21259;DHT22;10787;53.364;-1.480;2023-05-10T12:35:31;15.40;1.00
21259;DHT22;10787;53.364;-1.480;2023-05-10T12:38:36;15.40;1.00
21259;DHT22;10787;53.364;-1.480;2023-05-10T12:41:22;15.30;1.00
21259;DHT22;10787;53.364;-1.480;2023-05-10T12:44:06;15.40;1.00
21259;DHT22;10787;53.364;-1.480;2023-05-10T12:46:50;15.50;1.00
21259;DHT22;10787;53.364;-1.480;2023-05-10T12:49:34;16.00;1.00
21259;DHT22;10787;53.364;-1.480;2023-05-10T12:52:19;16.80;1.00
21259;DHT22;10787;53.364;-1.480;2023-05-10T12:55:03;18.00;1.00
21259;DHT22;10787;53.364;-1.480;2023-05-10T12:57:48;19.10;1.00
21259;DHT22;10787;53.364;-1.480;2023-05-10T13:00:32;20.20;1.00
21259;DHT22;10787;53.364;-1.480;2023-05-10T13:03:17;21.70;1.00
21259;DHT22;10787;53.364;-1.480;2023-05-10T13:06:02;23.00;1.00
21259;DHT22;10787;53.364;-1.480;2023-05-10T13:08:46;22.90;1.00
21259;DHT22;10787;53.364;-1.480;2023-05-10T13:11:30;22.20;1.00
21259;DHT22;10787;53.364;-1.480;2023-05-10T13:14:15;21.70;1.00
21259;DHT22;10787;53.364;-1.480;2023-05-10T13:16:59;20.90;1.00
21259;DHT22;10787;53.364;-1.480;2023-05-10T13:19:43;20.20;1.00
21259;DHT22;10787;53.364;-1.480;2023-05-10T13:22:27;19.50;1.00
21259;DHT22;10787;53.364;-1.480;2023-05-10T13:25:12;18.50;1.00
21259;DHT22;10787;53.364;-1.480;2023-05-10T13:27:56;17.90;1.00
21259;DHT22;10787;53.364;-1.480;2023-05-10T13:30:41;17.10;1.00
21259;DHT22;10787;53.364;-1.480;2023-05-10T13:33:25;16.20;1.00
21259;DHT22;10787;53.364;-1.480;2023-05-10T13:36:09;15.20;1.00
21259;DHT22;10787;53.364;-1.480;2023-05-10T13:38:54;14.40;1.00
21259;DHT22;10787;53.364;-1.480;2023-05-10T13:41:38;13.70;1.00
21259;DHT22;10787;53.364;-1.480;2023-05-10T13:44:22;13.30;1.00
21259;DHT22;10787;53.364;-1.480;2023-05-10T13:47:07;13.10;1.00
21259;DHT22;10787;53.364;-1.480;2023-05-10T13:49:51;13.20;1.00
21259;DHT22;10787;53.364;-1.480;2023-05-10T13:52:36;13.40;1.00
21259;DHT22;10787;53.364;-1.480;2023-05-10T13:55:20;13.70;17.10
21259;DHT22;10787;53.364;-1.480;2023-05-10T13:58:05;14.00;45.30
21259;DHT22;10787;53.364;-1.480;2023-05-10T14:00:49;14.20;1.00
21259;DHT22;10787;53.364;-1.480;2023-05-10T14:03:33;14.40;1.00
21259;DHT22;10787;53.364;-1.480;2023-05-10T14:06:17;14.60;1.00
21259;DHT22;10787;53.364;-1.480;2023-05-10T14:09:05;14.70;1.00
21259;DHT22;10787;53.364;-1.480;2023-05-10T14:11:49;14.80;1.00
21259;DHT22;10787;53.364;-1.480;2023-05-10T14:14:34;14.80;1.00
21259;DHT22;10787;53.364;-1.480;2023-05-10T14:17:18;14.90;1.00
21259;DHT22;10787;53.364;-1.480;2023-05-10T14:20:03;15.10;1.00
21259;DHT22;10787;53.364;-1.480;2023-05-10T14:22:47;15.30;1.00
21259;DHT22;10787;53.364;-1.480;2023-05-10T14:25:31;15.50;1.00
21259;DHT22;10787;53.364;-1.480;2023-05-10T14:28:17;15.80;1.00
21259;DHT22;10787;53.364;-1.480;2023-05-10T14:31:02;15.80;1.00
21259;DHT22;10787;53.364;-1.480;2023-05-10T14:33:47;15.90;1.00
21259;DHT22;10787;53.364;-1.480;2023-05-10T14:36:31;15.90;1.00
21259;DHT22;10787;53.364;-1.480;2023-05-10T14:39:16;16.00;1.00
21259;DHT22;10787;53.364;-1.480;2023-05-10T14:42:00;16.20;1.00
21259;DHT22;10787;53.364;-1.480;2023-05-10T14:44:44;16.40;1.00
21259;DHT22;10787;53.364;-1.480;2023-05-10T14:47:29;16.40;1.00
21259;DHT22;10787;53.364;-1.480;2023-05-10T14:50:13;16.40;1.00
21259;DHT22;10787;53.364;-1.480;2023-05-10T14:52:58;16.30;1.00
21259;DHT22;10787;53.364;-1.480;2023-05-10T14:55:43;16.20;1.00
21259;DHT22;10787;53.364;-1.480;2023-05-10T14:58:27;16.30;1.00
21259;DHT22;10787;53.364;-1.480;2023-05-10T15:01:11;16.40;1.00
21259;DHT22;10787;53.364;-1.480;2023-05-10T15:03:55;16.70;1.00
21259;DHT22;10787;53.364;-1.480;2023-05-10T15:06:39;16.70;1.00
21259;DHT22;10787;53.364;-1.480;2023-05-10T15:09:25;16.60;1.00
21259;DHT22;10787;53.364;-1.480;2023-05-10T15:12:11;16.60;1.00
21259;DHT22;10787;53.364;-1.480;2023-05-10T15:14:56;16.60;1.00
21259;DHT22;10787;53.364;-1.480;2023-05-10T15:17:40;16.60;1.00
21259;DHT22;10787;53.364;-1.480;2023-05-10T15:20:24;16.60;1.00
21259;DHT22;10787;53.364;-1.480;2023-05-10T15:23:08;16.50;1.00
21259;DHT22;10787;53.364;-1.480;2023-05-10T15:25:52;16.40;1.00
21259;DHT22;10787;53.364;-1.480;2023-05-10T15:28:39;16.10;1.00
21259;DHT22;10787;53.364;-1.480;2023-05-10T15:31:24;16.10;1.00
21259;DHT22;10787;53.364;-1.480;2023-05-10T15:34:08;15.90;1.00
21259;DHT22;10787;53.364;-1.480;2023-05-10T15:36:53;15.80;1.00
21259;DHT22;10787;53.364;-1.480;2023-05-10T15:39:37;15.70;1.00
21259;DHT22;10787;53.364;-1.480;2023-05-10T15:42:21;15.70;1.00
21259;DHT22;10787;53.364;-1.480;2023-05-10T15:45:06;15.50;1.00
21259;DHT22;10787;53.364;-1.480;2023-05-10T15:47:51;15.30;1.00
21259;DHT22;10787;53.364;-1.480;2023-05-10T15:50:35;15.20;1.00
21259;DHT22;10787;53.364;-1.480;2023-05-10T15:53:20;15.20;1.00
21259;DHT22;10787;53.364;-1.480;2023-05-10T15:56:05;15.30;1.00
21259;DHT22;10787;53.364;-1.480;2023-05-10T15:58:49;15.40;1.00
21259;DHT22;10787;53.364;-1.480;2023-05-10T16:01:34;15.40;1.00
21259;DHT22;10787;53.364;-1.480;2023-05-10T16:04:18;15.60;1.00
21259;DHT22;10787;53.364;-1.480;2023-05-10T16:07:03;15.80;1.00
21259;DHT22;10787;53.364;-1.480;2023-05-10T16:09:48;15.90;1.00
21259;DHT22;10787;53.364;-1.480;2023-05-10T16:12:32;16.10;1.00
21259;DHT22;10787;53.364;-1.480;2023-05-10T16:15:17;16.40;1.00
21259;DHT22;10787;53.364;-1.480;2023-05-10T16:18:01;16.40;1.00
21259;DHT22;10787;53.364;-1.480;2023-05-10T16:20:45;16.50;1.00
21259;DHT22;10787;53.364;-1.480;2023-05-10T16:23:29;16.60;1.00
21259;DHT22;10787;53.364;-1.480;2023-05-10T16:26:14;16.70;1.00
21259;DHT22;10787;53.364;-1.480;2023-05-10T16:28:59;16.70;1.00
21259;DHT22;10787;53.364;-1.480;2023-05-10T16:31:43;16.50;1.00
21259;DHT22;10787;53.364;-1.480;2023-05-10T16:34:28;16.50;1.00
21259;DHT22;10787;53.364;-1.480;2023-05-10T16:37:12;16.40;1.00
21259;DHT22;10787;53.364;-1.480;2023-05-10T16:39:56;16.40;1.00
21259;DHT22;10787;53.364;-1.480;2023-05-10T16:42:40;16.40;1.00
21259;DHT22;10787;53.364;-1.480;2023-05-10T16:45:24;16.30;1.00
21259;DHT22;10787;53.364;-1.480;2023-05-10T16:48:10;16.20;1.00
21259;DHT22;10787;53.364;-1.480;2023-05-10T16:50:53;16.30;1.00
21259;DHT22;10787;53.364;-1.480;2023-05-10T16:53:38;16.30;1.00
21259;DHT22;10787;53.364;-1.480;2023-05-10T16:56:22;16.20;1.00
21259;DHT22;10787;53.364;-1.480;2023-05-10T16:59:07;16.20;1.00
21259;DHT22;10787;53.364;-1.480;2023-05-10T17:01:51;16.70;1.00
21259;DHT22;10787;53.364;-1.480;2023-05-10T17:04:36;17.20;1.00
21259;DHT22;10787;53.364;-1.480;2023-05-10T17:07:21;17.50;1.00
21259;DHT22;10787;53.364;-1.480;2023-05-10T17:10:06;17.00;1.00
21259;DHT22;10787;53.364;-1.480;2023-05-10T17:12:50;16.80;1.00
21259;DHT22;10787;53.364;-1.480;2023-05-10T17:15:35;16.30;1.00
21259;DHT22;10787;53.364;-1.480;2023-05-10T17:18:20;16.00;1.00
21259;DHT22;10787;53.364;-1.480;2023-05-10T17:21:05;15.70;1.00
21259;DHT22;10787;53.364;-1.480;2023-05-10T17:23:49;15.50;1.00
21259;DHT22;10787;53.364;-1.480;2023-05-10T17:26:33;15.30;1.00
21259;DHT22;10787;53.364;-1.480;2023-05-10T17:29:17;15.20;1.00
21259;DHT22;10787;53.364;-1.480;2023-05-10T17:32:02;15.30;1.00
21259;DHT22;10787;53.364;-1.480;2023-05-10T17:34:46;15.30;1.00
21259;DHT22;10787;53.364;-1.480;2023-05-10T17:37:30;15.40;1.00
21259;DHT22;10787;53.364;-1.480;2023-05-10T17:40:15;15.40;1.00
21259;DHT22;10787;53.364;-1.480;2023-05-10T17:43:00;15.30;1.00
21259;DHT22;10787;53.364;-1.480;2023-05-10T17:45:48;15.10;1.00